createdAt,value
2018-06-09T00:01:04.027Z,49.00
2018-06-09T00:03:32.134Z,61.03
2018-06-09T00:06:00.283Z,61.87
2018-06-09T00:08:28.402Z,68.43
2018-06-09T00:10:56.530Z,43.67
2018-06-09T00:13:24.637Z,73.63
2018-06-09T00:15:52.763Z,55.57
2018-06-09T00:18:20.882Z,77.07
2018-06-09T00:20:49.006Z,71.53
2018-06-09T00:23:17.127Z,49.27
2018-06-09T00:25:45.250Z,51.90
2018-06-09T00:28:13.406Z,52.30
2018-06-09T00:30:41.539Z,50.03
2018-06-09T00:33:09.671Z,46.47
2018-06-09T00:35:37.826Z,67.50
2018-06-09T00:38:05.939Z,68.13
2018-06-09T00:40:34.066Z,30.83
2018-06-09T00:43:02.190Z,47.33
2018-06-09T00:45:30.310Z,36.67
2018-06-09T00:47:58.471Z,32.17
2018-06-09T00:50:26.605Z,40.17
2018-06-09T00:52:54.714Z,57.07
2018-06-09T00:55:22.829Z,67.43
2018-06-09T00:57:50.960Z,72.73
2018-06-09T01:00:19.118Z,73.17
2018-06-09T01:02:47.251Z,49.17
2018-06-09T01:05:15.395Z,51.63
2018-06-09T01:07:43.541Z,66.87
2018-06-09T01:10:11.658Z,70.87
2018-06-09T01:12:39.795Z,58.63
2018-06-09T01:15:07.920Z,33.37
2018-06-09T01:17:36.059Z,37.43
2018-06-09T01:20:04.193Z,54.00
2018-06-09T01:22:32.322Z,51.97
2018-06-09T01:25:00.455Z,47.73
2018-06-09T01:27:28.583Z,46.17
2018-06-09T01:29:56.700Z,55.83
2018-06-09T01:32:24.817Z,51.20
2018-06-09T01:34:52.942Z,44.53
2018-06-09T01:37:21.075Z,37.47
2018-06-09T01:39:49.199Z,41.80
2018-06-09T01:42:17.337Z,30.03
2018-06-09T01:44:45.446Z,31.90
2018-06-09T01:47:13.574Z,32.57
2018-06-09T01:49:41.710Z,36.77
2018-06-09T01:52:09.856Z,45.43
2018-06-09T01:54:37.991Z,52.17
2018-06-09T01:57:06.126Z,42.10
2018-06-09T01:59:34.278Z,27.43
2018-06-09T02:02:02.395Z,27.23
2018-06-09T02:04:30.524Z,32.27
2018-06-09T02:06:58.646Z,30.97
2018-06-09T02:09:26.757Z,23.07
2018-06-09T02:11:54.896Z,16.73
2018-06-09T02:14:23.010Z,20.90
2018-06-09T02:16:51.189Z,20.83
2018-06-09T02:19:19.086Z,20.17
2018-06-09T02:21:47.222Z,28.33
2018-06-09T02:24:15.339Z,24.90
2018-06-09T02:26:43.474Z,23.30
2018-06-09T02:29:11.638Z,23.40
2018-06-09T02:31:39.749Z,25.87
2018-06-09T02:34:07.858Z,23.43
2018-06-09T02:36:35.975Z,19.87
2018-06-09T02:39:06.754Z,34.00
2018-06-09T02:41:34.964Z,31.47
2018-06-09T02:44:03.088Z,27.70
2018-06-09T02:46:31.207Z,33.40
2018-06-09T02:48:59.349Z,25.40
2018-06-09T02:51:27.486Z,21.67
2018-06-09T02:53:56.353Z,24.83
2018-06-09T02:56:24.487Z,22.93
2018-06-09T02:58:52.619Z,21.97
2018-06-09T03:01:20.728Z,19.33
2018-06-09T03:03:48.850Z,27.07
2018-06-09T03:06:16.971Z,23.20
2018-06-09T03:08:45.096Z,20.57
2018-06-09T03:11:13.229Z,30.53
2018-06-09T03:13:41.343Z,40.47
2018-06-09T03:16:09.462Z,34.30
2018-06-09T03:18:37.592Z,21.07
2018-06-09T03:21:05.745Z,26.93
2018-06-09T03:23:33.895Z,26.97
2018-06-09T03:26:02.007Z,23.67
2018-06-09T03:28:30.144Z,32.43
2018-06-09T03:30:58.311Z,33.67
2018-06-09T03:33:26.373Z,21.47
2018-06-09T03:35:54.473Z,22.67
2018-06-09T03:38:22.600Z,25.67
2018-06-09T03:40:50.698Z,19.73
2018-06-09T03:43:18.850Z,32.77
2018-06-09T03:45:46.938Z,19.13
2018-06-09T03:48:15.081Z,37.13
2018-06-09T03:50:43.194Z,28.57
2018-06-09T03:53:11.318Z,47.67
2018-06-09T03:55:39.446Z,44.90
2018-06-09T03:58:07.575Z,22.73
2018-06-09T04:00:35.697Z,28.13
2018-06-09T04:03:03.835Z,23.37
2018-06-09T04:05:31.952Z,18.03
2018-06-09T04:08:00.059Z,20.67
2018-06-09T04:10:28.192Z,17.10
2018-06-09T04:12:56.335Z,14.20
2018-06-09T04:15:24.467Z,15.53
2018-06-09T04:17:52.599Z,15.67
2018-06-09T04:20:20.718Z,14.47
2018-06-09T04:22:48.842Z,18.33
2018-06-09T04:25:16.951Z,13.43
2018-06-09T04:27:45.071Z,13.57
2018-06-09T04:30:13.185Z,17.23
2018-06-09T04:32:41.313Z,13.83
2018-06-09T04:35:09.430Z,19.10
2018-06-09T04:37:37.563Z,16.30
2018-06-09T04:40:05.729Z,15.30
2018-06-09T04:42:33.835Z,18.43
2018-06-09T04:45:01.956Z,15.20
2018-06-09T04:47:30.066Z,22.50
2018-06-09T04:49:58.207Z,12.30
2018-06-09T04:52:26.322Z,22.63
2018-06-09T04:54:54.452Z,17.87
2018-06-09T04:57:22.577Z,21.97
2018-06-09T04:59:50.696Z,17.03
2018-06-09T05:02:18.821Z,19.50
2018-06-09T05:04:46.946Z,12.97
2018-06-09T05:07:15.089Z,25.10
2018-06-09T05:09:43.162Z,14.20
2018-06-09T05:12:11.258Z,18.60
2018-06-09T05:14:39.389Z,12.83
2018-06-09T05:17:07.508Z,13.67
2018-06-09T05:19:35.643Z,12.67
2018-06-09T05:22:03.778Z,12.73
2018-06-09T05:24:31.930Z,15.47
2018-06-09T05:27:00.048Z,13.50
2018-06-09T05:29:28.149Z,13.73
2018-06-09T05:31:57.082Z,19.13
2018-06-09T05:34:25.187Z,14.83
2018-06-09T05:36:53.315Z,14.87
2018-06-09T05:39:21.438Z,15.07
2018-06-09T05:41:49.572Z,19.53
2018-06-09T05:44:17.686Z,16.83
2018-06-09T05:46:45.810Z,19.27
2018-06-09T05:49:13.922Z,21.67
2018-06-09T05:51:42.059Z,20.03
2018-06-09T05:54:10.182Z,15.30
2018-06-09T05:56:38.301Z,13.47
2018-06-09T05:59:06.427Z,15.23
2018-06-09T06:01:34.575Z,15.67
2018-06-09T06:04:02.722Z,16.43
2018-06-09T06:06:30.805Z,13.93
2018-06-09T06:08:58.922Z,13.87
2018-06-09T06:11:27.046Z,15.50
2018-06-09T06:13:55.167Z,17.83
2018-06-09T06:16:23.288Z,16.67
2018-06-09T06:18:51.455Z,14.43
2018-06-09T06:21:19.539Z,14.23
2018-06-09T06:23:47.674Z,16.97
2018-06-09T06:26:15.836Z,14.63
2018-06-09T06:28:43.999Z,18.23
2018-06-09T06:31:12.102Z,18.00
2018-06-09T06:33:40.215Z,19.97
2018-06-09T06:36:08.321Z,15.37
2018-06-09T06:38:36.450Z,15.67
2018-06-09T06:41:04.561Z,19.83
2018-06-09T06:43:32.682Z,21.70
2018-06-09T06:46:00.801Z,14.97
2018-06-09T06:48:28.941Z,19.67
2018-06-09T06:50:57.059Z,17.10
2018-06-09T06:53:25.187Z,14.60
2018-06-09T06:55:53.295Z,20.57
2018-06-09T06:58:21.417Z,15.80
2018-06-09T07:00:49.546Z,14.57
2018-06-09T07:03:17.696Z,17.53
2018-06-09T07:05:45.816Z,15.77
2018-06-09T07:08:13.942Z,13.50
2018-06-09T07:10:42.046Z,14.77
2018-06-09T07:13:10.211Z,15.27
2018-06-09T07:15:38.361Z,16.03
2018-06-09T07:18:06.474Z,13.27
2018-06-09T07:20:34.607Z,17.07
2018-06-09T07:23:02.732Z,17.13
2018-06-09T07:25:30.888Z,13.37
2018-06-09T07:27:59.022Z,15.10
2018-06-09T07:30:27.166Z,14.33
2018-06-09T07:32:55.287Z,18.97
2018-06-09T07:35:23.422Z,13.70
2018-06-09T07:37:51.553Z,14.73
2018-06-09T07:40:19.674Z,15.13
2018-06-09T07:42:47.807Z,16.33
2018-06-09T07:45:15.934Z,16.70
2018-06-09T07:47:44.082Z,16.37
2018-06-09T07:50:12.198Z,14.13
2018-06-09T07:52:40.382Z,19.03
2018-06-09T07:55:08.528Z,18.37
2018-06-09T07:57:36.642Z,15.77
2018-06-09T08:00:04.785Z,18.03
2018-06-09T08:02:32.908Z,15.40
2018-06-09T08:05:01.023Z,16.40
2018-06-09T08:07:29.151Z,18.67
2018-06-09T08:09:57.270Z,24.27
2018-06-09T08:12:25.377Z,17.73
2018-06-09T08:14:53.513Z,17.33
2018-06-09T08:17:21.684Z,21.33
2018-06-09T08:19:49.801Z,16.33
2018-06-09T08:22:17.926Z,17.40
2018-06-09T08:24:46.042Z,16.47
2018-06-09T08:27:20.711Z,16.53
2018-06-09T08:29:48.823Z,17.17
2018-06-09T08:32:16.947Z,17.40
2018-06-09T08:34:45.068Z,16.83
2018-06-09T08:37:13.170Z,17.40
2018-06-09T08:39:41.298Z,17.87
2018-06-09T08:42:09.436Z,17.07
2018-06-09T08:44:37.578Z,17.50
2018-06-09T08:47:05.686Z,17.30
2018-06-09T08:49:33.804Z,17.57
2018-06-09T08:52:01.935Z,21.57
2018-06-09T08:54:30.063Z,16.50
2018-06-09T08:56:58.191Z,16.50
2018-06-09T08:59:26.303Z,15.87
2018-06-09T09:01:54.420Z,16.57
2018-06-09T09:04:22.555Z,23.90
2018-06-09T09:06:50.671Z,16.63
2018-06-09T09:09:18.823Z,16.40
2018-06-09T09:11:46.927Z,18.50
2018-06-09T09:14:15.102Z,20.60
2018-06-09T09:16:43.216Z,16.57
2018-06-09T09:19:11.350Z,15.33
2018-06-09T09:21:39.454Z,17.23
2018-06-09T09:24:07.598Z,16.90
2018-06-09T09:26:35.709Z,17.00
2018-06-09T09:29:03.842Z,17.20
2018-06-09T09:31:32.004Z,20.63
2018-06-09T09:34:00.122Z,17.10
2018-06-09T09:36:28.247Z,15.77
2018-06-09T09:38:56.374Z,16.53
2018-06-09T09:41:24.493Z,18.97
2018-06-09T09:43:52.606Z,17.77
2018-06-09T09:46:20.786Z,17.20
2018-06-09T09:48:48.871Z,16.03
2018-06-09T09:51:16.985Z,17.67
2018-06-09T09:53:45.099Z,16.67
2018-06-09T09:56:13.258Z,16.53
2018-06-09T09:58:41.390Z,16.20
2018-06-09T10:01:09.530Z,15.97
2018-06-09T10:03:37.707Z,17.27
2018-06-09T10:06:05.854Z,16.23
2018-06-09T10:08:33.974Z,18.70
2018-06-09T10:11:02.111Z,15.57
2018-06-09T10:13:30.240Z,16.60
2018-06-09T10:15:58.366Z,16.57
2018-06-09T10:18:26.511Z,16.40
2018-06-09T10:20:54.631Z,16.03
2018-06-09T10:23:22.746Z,16.43
2018-06-09T10:25:50.874Z,15.50
2018-06-09T10:28:18.995Z,16.77
2018-06-09T10:30:47.097Z,16.23
2018-06-09T10:33:15.219Z,15.20
2018-06-09T10:35:43.357Z,14.70
2018-06-09T10:38:11.483Z,14.90
2018-06-09T10:40:39.613Z,15.43
2018-06-09T10:43:07.726Z,15.63
2018-06-09T10:45:35.863Z,14.40
2018-06-09T10:48:03.974Z,14.37
2018-06-09T10:50:32.086Z,17.17
2018-06-09T10:53:00.231Z,14.73
2018-06-09T10:55:28.345Z,12.97
2018-06-09T10:57:56.465Z,13.83
2018-06-09T11:00:24.581Z,14.67
2018-06-09T11:02:52.686Z,15.63
2018-06-09T11:05:20.591Z,13.87
2018-06-09T11:07:48.739Z,16.77
2018-06-09T11:10:16.870Z,13.77
2018-06-09T11:12:44.978Z,12.97
2018-06-09T11:15:13.131Z,13.37
2018-06-09T11:17:41.273Z,14.13
2018-06-09T11:20:09.402Z,13.70
2018-06-09T11:22:39.575Z,15.43
2018-06-09T11:25:07.699Z,14.20
2018-06-09T11:27:35.837Z,13.80
2018-06-09T11:30:04.012Z,13.77
2018-06-09T11:32:32.146Z,12.83
2018-06-09T11:35:00.258Z,12.63
2018-06-09T11:37:28.383Z,15.53
2018-06-09T11:39:56.481Z,13.63
2018-06-09T11:44:31.414Z,13.47
2018-06-09T11:46:59.539Z,12.80
2018-06-09T11:49:27.680Z,12.17
2018-06-09T11:51:55.823Z,12.77
2018-06-09T11:54:23.955Z,12.70
2018-06-09T11:56:52.087Z,13.77
2018-06-09T11:59:20.201Z,12.93
2018-06-09T12:01:48.408Z,13.00
2018-06-09T12:04:16.491Z,13.00
2018-06-09T12:06:44.651Z,12.27
2018-06-09T12:09:12.762Z,12.53
2018-06-09T12:11:40.911Z,12.57
2018-06-09T12:14:09.018Z,13.17
2018-06-09T12:16:37.170Z,13.13
2018-06-09T12:19:05.347Z,11.77
2018-06-09T12:21:33.460Z,12.13
2018-06-09T12:24:01.598Z,12.07
2018-06-09T12:26:29.715Z,12.77
2018-06-09T12:28:57.822Z,12.43
2018-06-09T12:31:25.951Z,11.90
2018-06-09T12:33:54.068Z,12.27
2018-06-09T12:36:22.190Z,12.87
2018-06-09T12:38:50.559Z,12.23
2018-06-09T12:41:18.688Z,12.30
2018-06-09T12:43:46.816Z,13.53
2018-06-09T12:46:14.937Z,16.80
2018-06-09T12:48:43.068Z,12.60
2018-06-09T12:51:11.170Z,14.10
2018-06-09T12:53:39.286Z,12.67
2018-06-09T12:56:07.458Z,11.13
2018-06-09T12:58:35.592Z,11.43
2018-06-09T13:01:03.754Z,10.30
2018-06-09T13:03:31.869Z,9.10
2018-06-09T13:05:59.990Z,9.87
2018-06-09T13:08:28.593Z,9.30
2018-06-09T13:10:56.768Z,8.53
2018-06-09T13:13:24.956Z,8.30
2018-06-09T13:15:53.089Z,8.53
2018-06-09T13:18:21.229Z,9.23
2018-06-09T13:20:49.360Z,8.50
2018-06-09T13:23:17.523Z,10.97
2018-06-09T13:25:45.675Z,11.73
2018-06-09T13:28:13.842Z,19.80
2018-06-09T13:30:42.007Z,16.73
2018-06-09T13:33:10.154Z,20.80
2018-06-09T13:35:38.303Z,21.80
2018-06-09T13:38:06.467Z,17.40
2018-06-09T13:40:34.606Z,25.20
2018-06-09T13:43:02.783Z,27.67
2018-06-09T13:45:30.927Z,21.80
2018-06-09T13:47:59.071Z,23.50
2018-06-09T13:50:27.247Z,20.03
2018-06-09T13:52:55.386Z,22.47
2018-06-09T13:55:23.544Z,20.90
2018-06-09T13:57:51.703Z,20.60
2018-06-09T14:00:19.838Z,23.60
2018-06-09T14:02:47.965Z,24.13
2018-06-09T14:05:16.116Z,27.98
2018-06-09T14:07:44.242Z,25.97
2018-06-09T14:10:12.368Z,27.90
2018-06-09T14:12:40.538Z,23.50
2018-06-09T14:15:08.662Z,24.40
2018-06-09T14:17:36.825Z,25.50
2018-06-09T14:20:04.926Z,21.73
2018-06-09T14:22:33.075Z,22.17
2018-06-09T14:25:01.204Z,23.97
2018-06-09T14:27:29.355Z,21.57
2018-06-09T14:29:57.481Z,23.50
2018-06-09T14:32:25.642Z,29.27
2018-06-09T14:34:53.781Z,24.97
2018-06-09T14:37:21.918Z,25.37
2018-06-09T14:39:50.065Z,22.83
2018-06-09T14:42:18.210Z,23.37
2018-06-09T14:44:46.347Z,27.27
2018-06-09T14:47:14.475Z,26.37
2018-06-09T14:49:42.638Z,30.33
2018-06-09T14:52:10.746Z,28.20
2018-06-09T14:54:38.881Z,27.40
2018-06-09T14:57:06.999Z,25.33
2018-06-09T14:59:35.154Z,25.93
2018-06-09T15:02:03.302Z,21.20
2018-06-09T15:04:31.466Z,23.33
2018-06-09T15:06:59.590Z,24.97
2018-06-09T15:09:27.742Z,17.30
2018-06-09T15:11:55.861Z,15.93
2018-06-09T15:14:24.010Z,13.60
2018-06-09T15:16:52.126Z,11.50
2018-06-09T15:19:20.259Z,12.67
2018-06-09T15:21:48.381Z,10.53
2018-06-09T15:24:16.510Z,9.70
2018-06-09T15:26:44.642Z,9.73
2018-06-09T15:29:12.754Z,9.73
2018-06-09T15:31:40.875Z,9.80
2018-06-09T15:34:09.020Z,10.93
2018-06-09T15:36:37.142Z,11.53
2018-06-09T15:39:07.462Z,13.23
2018-06-09T15:41:35.590Z,13.93
2018-06-09T15:44:03.711Z,13.27
2018-06-09T15:46:31.866Z,9.57
2018-06-09T15:48:59.963Z,10.37
2018-06-09T15:51:28.097Z,11.60
2018-06-09T15:53:56.207Z,11.53
2018-06-09T15:56:24.338Z,10.13
2018-06-09T15:58:52.454Z,8.80
2018-06-09T16:01:20.608Z,9.70
2018-06-09T16:03:48.730Z,12.37
2018-06-09T16:06:16.874Z,10.20
2018-06-09T16:08:45.024Z,11.10
2018-06-09T16:11:13.167Z,11.27
2018-06-09T16:13:41.290Z,12.30
2018-06-09T16:16:09.415Z,10.30
2018-06-09T16:18:37.534Z,10.60
2018-06-09T16:21:05.657Z,10.57
2018-06-09T16:23:33.767Z,10.63
2018-06-09T16:26:01.902Z,13.00
2018-06-09T16:28:30.030Z,12.50
2018-06-09T16:30:58.139Z,11.97
2018-06-09T16:33:26.253Z,12.50
2018-06-09T16:35:54.397Z,17.27
2018-06-09T16:38:22.522Z,15.63
2018-06-09T16:40:50.647Z,11.97
2018-06-09T16:43:18.774Z,10.57
2018-06-09T16:45:46.918Z,11.23
2018-06-09T16:48:15.018Z,11.80
2018-06-09T16:50:43.126Z,12.30
2018-06-09T16:53:11.244Z,10.37
2018-06-09T16:55:39.378Z,15.83
2018-06-09T16:58:07.490Z,10.00
2018-06-09T17:00:35.622Z,10.77
2018-06-09T17:03:03.743Z,10.03
2018-06-09T17:05:31.859Z,10.23
2018-06-09T17:07:59.999Z,11.17
2018-06-09T17:10:28.094Z,10.50
2018-06-09T17:12:56.251Z,10.63
2018-06-09T17:15:24.358Z,11.90
2018-06-09T17:17:52.477Z,14.63
2018-06-09T17:20:20.604Z,16.87
2018-06-09T17:22:48.737Z,16.10
2018-06-09T17:25:16.850Z,15.67
2018-06-09T17:27:45.007Z,15.50
2018-06-09T17:30:13.137Z,14.27
2018-06-09T17:32:41.274Z,14.77
2018-06-09T17:35:09.389Z,17.97
2018-06-09T17:37:37.523Z,17.23
2018-06-09T17:40:05.657Z,17.53
2018-06-09T17:42:33.927Z,14.70
2018-06-09T17:45:02.048Z,15.80
2018-06-09T17:47:30.157Z,20.13
2018-06-09T17:49:58.272Z,20.13
2018-06-09T17:52:26.452Z,16.93
2018-06-09T17:54:54.550Z,16.10
2018-06-09T17:57:22.749Z,19.53
2018-06-09T17:59:50.832Z,16.30
2018-06-09T18:02:18.970Z,15.97
2018-06-09T18:04:47.090Z,22.80
2018-06-09T18:07:15.218Z,25.63
2018-06-09T18:09:43.358Z,16.10
2018-06-09T18:12:11.514Z,17.00
2018-06-09T18:14:39.596Z,24.80
2018-06-09T18:17:07.715Z,16.03
2018-06-09T18:19:35.913Z,19.63
2018-06-09T18:22:03.959Z,22.70
2018-06-09T18:24:32.094Z,16.60
2018-06-09T18:27:00.224Z,15.03
2018-06-09T18:29:28.347Z,21.87
2018-06-09T18:31:56.465Z,17.90
2018-06-09T18:34:24.587Z,20.20
2018-06-09T18:36:52.701Z,23.53
2018-06-09T18:39:20.831Z,24.40
2018-06-09T18:41:48.946Z,26.00
2018-06-09T18:44:17.069Z,22.07
2018-06-09T18:46:45.204Z,21.63
2018-06-09T18:49:13.333Z,19.57
2018-06-09T18:51:41.455Z,19.10
2018-06-09T18:54:09.576Z,20.00
2018-06-09T18:56:37.692Z,18.07
2018-06-09T18:59:05.815Z,16.43
2018-06-09T19:01:33.931Z,25.23
2018-06-09T19:04:02.080Z,16.80
2018-06-09T19:06:30.163Z,22.87
2018-06-09T19:08:58.292Z,18.27
2018-06-09T19:11:26.408Z,21.33
2018-06-09T19:13:54.537Z,17.60
2018-06-09T19:16:22.671Z,15.23
2018-06-09T19:18:50.789Z,25.00
2018-06-09T19:21:18.906Z,16.17
2018-06-09T19:23:47.025Z,16.40
2018-06-09T19:26:15.146Z,16.63
2018-06-09T19:28:43.292Z,39.37
2018-06-09T19:31:11.406Z,20.07
2018-06-09T19:33:39.526Z,17.07
2018-06-09T19:36:07.633Z,20.87
2018-06-09T19:38:35.977Z,21.40
2018-06-09T19:41:04.512Z,17.17
2018-06-09T19:43:32.874Z,17.03
2018-06-09T19:46:01.048Z,17.67
2018-06-09T19:48:30.341Z,18.80
2018-06-09T19:51:00.301Z,18.23
2018-06-09T19:53:28.387Z,32.27
2018-06-09T19:55:58.039Z,19.73
2018-06-09T19:58:27.212Z,19.97
2018-06-09T20:00:55.572Z,20.83
2018-06-09T20:03:23.730Z,19.90
2018-06-09T20:05:51.806Z,21.63
2018-06-09T20:08:21.144Z,21.23
2018-06-09T20:10:50.114Z,23.23
2018-06-09T20:13:19.046Z,21.67
2018-06-09T20:15:47.230Z,22.40
2018-06-09T20:18:15.616Z,20.33
2018-06-09T20:20:44.659Z,21.77
2018-06-09T20:23:13.406Z,37.47
2018-06-09T20:25:42.239Z,20.60
2018-06-09T20:28:11.136Z,20.47
2018-06-09T20:30:39.394Z,19.73
2018-06-09T20:33:08.101Z,25.63
2018-06-09T20:35:36.888Z,33.93
2018-06-09T20:38:05.592Z,36.17
2018-06-09T20:40:34.955Z,33.67
2018-06-09T20:43:03.073Z,20.83
2018-06-09T20:45:32.356Z,20.37
2018-06-09T20:48:01.698Z,30.20
2018-06-09T20:50:31.690Z,30.53
2018-06-09T20:53:00.565Z,24.43
2018-06-09T20:55:28.711Z,18.87
2018-06-09T20:57:56.826Z,22.60
2018-06-09T21:00:24.958Z,19.40
2018-06-09T21:02:52.827Z,32.37
2018-06-09T21:05:21.009Z,27.93
2018-06-09T21:07:49.115Z,21.27
2018-06-09T21:10:17.291Z,23.80
2018-06-09T21:12:45.409Z,28.97
2018-06-09T21:15:13.530Z,24.10
2018-06-09T21:17:41.659Z,25.70
2018-06-09T21:20:09.794Z,25.50
2018-06-09T21:22:37.917Z,23.23
2018-06-09T21:25:06.127Z,26.77
2018-06-09T21:27:39.485Z,25.67
2018-06-09T21:30:12.971Z,41.70
2018-06-09T21:32:43.992Z,33.93
2018-06-09T21:35:28.979Z,28.73
2018-06-09T21:38:02.609Z,28.33
2018-06-09T21:40:36.121Z,34.47
2018-06-09T21:43:09.674Z,38.27
2018-06-09T21:45:43.158Z,26.63
2018-06-09T21:48:11.294Z,24.77
2018-06-09T21:50:39.434Z,31.53
2018-06-09T21:53:07.574Z,24.53
2018-06-09T21:55:35.685Z,32.30
2018-06-09T21:58:03.810Z,29.67
2018-06-09T22:00:31.932Z,40.37
2018-06-09T22:03:00.061Z,34.40
2018-06-09T22:05:28.181Z,31.50
2018-06-09T22:07:56.081Z,34.00
2018-06-09T22:10:24.214Z,33.57
2018-06-09T22:12:52.326Z,39.47
2018-06-09T22:15:20.426Z,30.73
2018-06-09T22:17:48.639Z,28.23
2018-06-09T22:20:16.773Z,27.60
2018-06-09T22:22:45.506Z,25.87
2018-06-09T22:25:17.842Z,25.40
2018-06-09T22:27:45.987Z,26.87
2018-06-09T22:30:14.102Z,23.77
2018-06-09T22:32:42.214Z,48.27
2018-06-09T22:35:10.318Z,24.20
2018-06-09T22:37:38.431Z,27.67
2018-06-09T22:40:06.563Z,30.57
2018-06-09T22:42:34.724Z,26.77
2018-06-09T22:45:02.818Z,30.10
2018-06-09T22:47:30.938Z,30.57
2018-06-09T22:50:03.638Z,29.37
2018-06-09T22:52:31.729Z,28.53
2018-06-09T22:54:59.855Z,36.73
2018-06-09T22:57:27.978Z,31.67
2018-06-09T22:59:56.096Z,27.90
2018-06-09T23:02:24.232Z,28.67
2018-06-09T23:04:52.327Z,30.70
2018-06-09T23:07:20.467Z,28.70
2018-06-09T23:09:48.616Z,31.47
2018-06-09T23:12:16.739Z,24.70
2018-06-09T23:14:44.866Z,26.20
2018-06-09T23:17:12.983Z,29.53
2018-06-09T23:19:41.118Z,28.53
2018-06-09T23:22:09.223Z,25.03
2018-06-09T23:24:37.391Z,39.70
2018-06-09T23:27:05.510Z,25.17
2018-06-09T23:29:33.634Z,26.33
2018-06-09T23:32:01.759Z,30.30
2018-06-09T23:34:29.903Z,29.07
2018-06-09T23:36:58.030Z,28.00
2018-06-09T23:40:14.183Z,26.83
2018-06-09T23:42:42.596Z,26.00
2018-06-09T23:45:10.710Z,24.93
2018-06-09T23:49:47.442Z,27.33
2018-06-09T23:52:15.566Z,26.33
2018-06-09T23:54:43.706Z,34.20
2018-06-09T23:57:11.821Z,29.83
2018-06-09T23:59:39.963Z,29.47
